Time;durP1;ratioP1;P1;durP2;ratioP2;P2;SDS_P1;SDS_P2;PMS_P1;PMS_P2;Temp;Humidity;BMP_temperature;BMP_pressure;BME280_temperature;BME280_humidity;BME280_pressure;Samples;Min_cycle;Max_cycle;Signal;HPM_P1;HPM_P2
2022/07/05 00:00:31;;;;;;;;;;;;;;;17.91;58.82;100348.69;6241282;23;19911;-74
2022/07/05 00:02:56;;;;;;;;;;;;;;;17.68;59.30;100362.28;6240974;23;19908;-73
2022/07/05 00:05:21;;;;;;;;;;;;;;;17.45;60.01;100364.00;6241279;23;19907;-83
2022/07/05 00:07:46;;;;;;;;;;;;;;;17.21;61.33;100362.06;6242477;23;19908;-84
2022/07/05 00:10:12;;;;;;;;;;;;;;;17.25;60.89;100366.72;6242136;23;20143;-75
2022/07/05 00:12:37;;;;;;;;;;;;;;;17.24;61.33;100365.09;6240920;23;19908;-75
2022/07/05 00:15:02;;;;;;;;;;;;;;;17.26;61.34;100367.53;6240623;23;20009;-87
2022/07/05 00:17:28;;;;;;;;;;;;;;;17.32;61.14;100360.03;6216066;23;19908;-87
2022/07/05 00:19:53;;;;;;;;;;;;;;;17.26;61.42;100364.78;6242413;23;19912;-87
2022/07/05 00:22:18;;;;;;;;;;;;;;;17.14;61.85;100355.03;6243100;23;19918;-87
2022/07/05 00:24:43;;;;;;;;;;;;;;;17.20;61.45;100352.19;6242620;23;19911;-84
2022/07/05 00:27:08;;;;;;;;;;;;;;;17.30;61.16;100356.75;6240112;23;19950;-77
2022/07/05 00:29:34;;;;;;;;;;;;;;;17.43;60.77;100360.72;6241119;23;19935;-77
2022/07/05 00:31:59;;;;;;;;;;;;;;;17.14;61.73;100362.47;6242775;23;19911;-87
2022/07/05 00:34:24;;;;;;;;;;;;;;;17.23;61.67;100357.91;6216169;23;19911;-87
2022/07/05 00:36:49;;;;;;;;;;;;;;;17.18;61.64;100362.69;6240954;23;19957;-76
2022/07/05 00:39:15;;;;;;;;;;;;;;;17.17;61.80;100363.81;6240416;23;20320;-77
2022/07/05 00:41:40;;;;;;;;;;;;;;;17.04;61.92;100357.88;6241134;23;19971;-79
2022/07/05 00:44:07;;;;;;;;;;;;;;;16.92;62.77;100353.56;6240996;23;19911;-80
2022/07/05 00:46:32;;;;;;;;;;;;;;;16.90;62.59;100355.81;6240715;23;19907;-74
2022/07/05 00:48:58;;;;;;;;;;;;;;;16.95;62.59;100359.63;6240492;23;20105;-73
2022/07/05 00:51:24;;;;;;;;;;;;;;;16.78;62.85;100358.16;6240255;23;19911;-74
2022/07/05 00:53:50;;;;;;;;;;;;;;;16.80;63.05;100354.00;6241085;23;19912;-74
2022/07/05 00:56:16;;;;;;;;;;;;;;;16.75;63.03;100358.75;6240535;23;19914;-73
2022/07/05 00:58:41;;;;;;;;;;;;;;;16.56;64.09;100353.97;6240681;23;19915;-74
2022/07/05 01:01:07;;;;;;;;;;;;;;;16.48;64.48;100357.34;6241424;23;19986;-79
2022/07/05 01:03:32;;;;;;;;;;;;;;;16.36;64.73;100364.06;6241149;23;19918;-80
2022/07/05 01:05:58;;;;;;;;;;;;;;;16.29;64.82;100358.91;6241121;23;19978;-78
2022/07/05 01:08:24;;;;;;;;;;;;;;;16.39;64.59;100366.25;6240519;23;19923;-77
2022/07/05 01:10:49;;;;;;;;;;;;;;;16.32;64.77;100369.34;6242412;23;19912;-83
2022/07/05 01:13:14;;;;;;;;;;;;;;;16.24;65.20;100360.88;6242622;23;19918;-83
2022/07/05 01:15:40;;;;;;;;;;;;;;;15.93;66.38;100362.75;6241615;23;19935;-77
2022/07/05 01:18:05;;;;;;;;;;;;;;;16.15;65.15;100368.94;6240670;23;19907;-77
2022/07/05 01:20:31;;;;;;;;;;;;;;;16.32;64.72;100369.34;6240218;23;19921;-76
2022/07/05 01:22:59;;;;;;;;;;;;;;;16.22;64.84;100366.69;6241237;23;19908;-76
2022/07/05 01:25:25;;;;;;;;;;;;;;;16.25;64.56;100368.03;6240465;23;20275;-77
2022/07/05 01:27:51;;;;;;;;;;;;;;;16.21;65.11;100371.34;6240651;23;19914;-77
2022/07/05 01:30:16;;;;;;;;;;;;;;;16.14;64.96;100372.78;6241239;23;19908;-80
2022/07/05 01:32:42;;;;;;;;;;;;;;;16.11;65.67;100371.44;6241109;23;19908;-79
2022/07/05 01:35:08;;;;;;;;;;;;;;;16.06;65.60;100368.75;6241496;23;19946;-87
2022/07/05 01:37:33;;;;;;;;;;;;;;;15.98;66.13;100370.97;6242106;23;19915;-87
2022/07/05 01:39:58;;;;;;;;;;;;;;;15.98;66.33;100375.66;6242650;23;19912;-87
2022/07/05 01:42:23;;;;;;;;;;;;;;;16.08;66.17;100372.03;6242644;23;19914;-87
2022/07/05 01:44:49;;;;;;;;;;;;;;;16.12;66.18;100373.09;6242558;23;19926;-80
2022/07/05 01:47:15;;;;;;;;;;;;;;;16.34;65.45;100369.88;6240202;23;19908;-80
2022/07/05 01:49:43;;;;;;;;;;;;;;;16.39;65.49;100380.03;6241075;23;19965;-79
2022/07/05 01:52:09;;;;;;;;;;;;;;;16.42;65.34;100378.59;6240200;23;19915;-80
2022/07/05 01:54:35;;;;;;;;;;;;;;;16.41;65.67;100368.72;6240890;23;19987;-80
2022/07/05 01:57:00;;;;;;;;;;;;;;;16.70;64.78;100378.88;6241951;23;20165;-85
2022/07/05 01:59:27;;;;;;;;;;;;;;;16.75;64.74;100364.25;6242270;23;19965;-84
2022/07/05 02:01:52;;;;;;;;;;;;;;;16.45;65.94;100373.34;6241291;23;19930;-80
2022/07/05 02:04:17;;;;;;;;;;;;;;;16.56;65.14;100367.72;6240228;23;20324;-81
2022/07/05 02:06:45;;;;;;;;;;;;;;;16.77;64.52;100368.34;6241981;23;19916;-87
2022/07/05 02:09:10;;;;;;;;;;;;;;;16.85;64.80;100363.31;6242261;23;19918;-87
2022/07/05 02:11:35;;;;;;;;;;;;;;;16.84;64.79;100369.94;6240476;23;20275;-74
2022/07/05 02:14:00;;;;;;;;;;;;;;;16.89;64.53;100369.88;6240471;23;20315;-74
2022/07/05 02:16:26;;;;;;;;;;;;;;;16.76;64.65;100360.41;6240409;23;19907;-74
2022/07/05 02:18:51;;;;;;;;;;;;;;;16.66;65.25;100364.88;6240317;23;19911;-74
2022/07/05 02:21:17;;;;;;;;;;;;;;;16.71;65.02;100368.69;6239768;23;20197;-80
2022/07/05 02:23:42;;;;;;;;;;;;;;;16.84;64.53;100370.75;6240322;23;19907;-79
2022/07/05 02:26:07;;;;;;;;;;;;;;;16.87;64.85;100372.09;6240063;23;19918;-77
2022/07/05 02:28:32;;;;;;;;;;;;;;;16.71;65.48;100360.44;6240081;23;19922;-77
2022/07/05 02:30:57;;;;;;;;;;;;;;;16.85;64.50;100355.88;6240363;23;19912;-74
2022/07/05 02:33:23;;;;;;;;;;;;;;;17.00;63.68;100349.34;6240503;23;19922;-74
2022/07/05 02:35:48;;;;;;;;;;;;;;;17.00;63.53;100360.38;6239950;23;20298;-79
2022/07/05 02:38:13;;;;;;;;;;;;;;;16.74;64.36;100352.41;6240304;23;19911;-80
2022/07/05 02:40:38;;;;;;;;;;;;;;;16.55;64.86;100352.34;6241423;23;19922;-83
2022/07/05 02:43:03;;;;;;;;;;;;;;;16.47;64.70;100353.81;6241992;23;19908;-83
2022/07/05 02:45:29;;;;;;;;;;;;;;;16.18;65.65;100371.13;6241383;23;20103;-75
2022/07/05 02:47:54;;;;;;;;;;;;;;;16.23;66.50;100368.34;6241081;23;19907;-77
2022/07/05 02:50:19;;;;;;;;;;;;;;;16.48;66.01;100362.84;6240794;23;19993;-77
2022/07/05 02:52:44;;;;;;;;;;;;;;;16.54;65.71;100369.97;6243170;23;19919;-78
2022/07/05 02:55:10;;;;;;;;;;;;;;;16.55;66.21;100363.34;6241573;23;19922;-77
2022/07/05 02:57:38;;;;;;;;;;;;;;;16.82;65.35;100370.22;6242026;23;19950;-77
2022/07/05 03:00:03;;;;;;;;;;;;;;;16.98;65.38;100365.38;6242064;23;19916;-78
2022/07/05 03:02:29;;;;;;;;;;;;;;;16.55;65.56;100372.44;6241981;23;19918;-77
2022/07/05 03:04:54;;;;;;;;;;;;;;;16.24;66.55;100369.13;6243250;23;20316;-84
2022/07/05 03:07:19;;;;;;;;;;;;;;;16.54;65.34;100372.72;6242883;23;19911;-84
2022/07/05 03:09:44;;;;;;;;;;;;;;;16.44;65.33;100368.13;6243927;23;19907;-87
2022/07/05 03:12:10;;;;;;;;;;;;;;;16.25;66.40;100373.53;6244084;23;20274;-87
2022/07/05 03:14:35;;;;;;;;;;;;;;;16.21;66.42;100368.59;6242663;23;19907;-78
2022/07/05 03:17:00;;;;;;;;;;;;;;;16.21;66.47;100367.81;6241437;23;20385;-77
2022/07/05 03:19:25;;;;;;;;;;;;;;;16.15;66.54;100367.00;6242553;23;19914;-83
2022/07/05 03:21:50;;;;;;;;;;;;;;;16.13;66.40;100366.47;6243159;23;19912;-83
2022/07/05 03:24:15;;;;;;;;;;;;;;;16.09;66.54;100381.91;6244557;23;19914;-83
2022/07/05 03:26:41;;;;;;;;;;;;;;;15.83;67.21;100371.06;6243219;23;19994;-83
2022/07/05 03:29:06;;;;;;;;;;;;;;;15.88;66.93;100374.59;6242617;23;19908;-77
2022/07/05 03:31:32;;;;;;;;;;;;;;;15.87;67.45;100383.13;6214717;23;19907;-77
2022/07/05 03:33:57;;;;;;;;;;;;;;;15.82;67.67;100388.69;6241869;23;19984;-74
2022/07/05 03:36:22;;;;;;;;;;;;;;;15.64;68.75;100382.75;6241152;23;19950;-74
2022/07/05 03:38:47;;;;;;;;;;;;;;;15.92;68.15;100393.28;6241982;23;19914;-82
2022/07/05 03:41:12;;;;;;;;;;;;;;;16.05;67.66;100380.84;6242905;23;19916;-83
2022/07/05 03:43:38;;;;;;;;;;;;;;;16.04;67.91;100384.69;6242250;23;19911;-76
2022/07/05 03:46:03;;;;;;;;;;;;;;;16.17;67.20;100391.50;6240488;23;19941;-75
2022/07/05 03:48:28;;;;;;;;;;;;;;;16.27;67.10;100396.09;6242002;23;19911;-83
2022/07/05 03:50:53;;;;;;;;;;;;;;;16.40;66.74;100392.66;6241792;23;19983;-83
2022/07/05 03:53:19;;;;;;;;;;;;;;;16.26;67.72;100391.69;6242593;23;20321;-74
2022/07/05 03:55:44;;;;;;;;;;;;;;;16.32;67.97;100385.03;6240723;23;20279;-74
2022/07/05 03:58:09;;;;;;;;;;;;;;;16.47;67.28;100383.25;6241260;23;19935;-84
2022/07/05 04:00:34;;;;;;;;;;;;;;;16.31;68.25;100391.66;6242267;23;19908;-83
2022/07/05 04:03:00;;;;;;;;;;;;;;;16.31;67.95;100386.16;6242876;23;19918;-87
2022/07/05 04:05:25;;;;;;;;;;;;;;;16.20;68.32;100390.91;6242453;23;20045;-87
2022/07/05 04:07:51;;;;;;;;;;;;;;;16.24;67.73;100393.91;6243132;23;19986;-84
2022/07/05 04:10:16;;;;;;;;;;;;;;;16.28;67.26;100392.22;6243177;23;19978;-84
2022/07/05 04:12:42;;;;;;;;;;;;;;;16.03;68.11;100389.38;6243331;23;20131;-76
2022/07/05 04:15:07;;;;;;;;;;;;;;;16.10;67.43;100391.81;6240447;23;19936;-76
2022/07/05 04:17:32;;;;;;;;;;;;;;;15.98;68.00;100387.47;6240224;23;19922;-76
2022/07/05 04:19:57;;;;;;;;;;;;;;;15.90;67.90;100393.56;6240559;23;20242;-76
2022/07/05 04:22:23;;;;;;;;;;;;;;;16.03;67.62;100399.56;6240381;23;20227;-77
2022/07/05 04:27:32;;;;;;;;;;;;;;;16.02;67.93;100403.41;6240611;23;19923;-76
2022/07/05 04:29:57;;;;;;;;;;;;;;;16.07;67.87;100395.13;6216507;23;19908;-84
2022/07/05 04:32:22;;;;;;;;;;;;;;;16.10;68.01;100394.56;6242346;23;19915;-83
2022/07/05 04:34:47;;;;;;;;;;;;;;;16.14;68.01;100390.13;6240992;23;20228;-74
2022/07/05 04:37:12;;;;;;;;;;;;;;;16.10;67.93;100397.31;6239912;23;19916;-74
2022/07/05 04:39:38;;;;;;;;;;;;;;;16.26;67.48;100391.69;6214203;23;20260;-79
2022/07/05 04:42:03;;;;;;;;;;;;;;;16.26;67.62;100391.69;6240428;23;19922;-79
2022/07/05 04:44:28;;;;;;;;;;;;;;;16.33;67.53;100397.69;6242443;23;19911;-84
2022/07/05 04:46:53;;;;;;;;;;;;;;;16.28;67.52;100397.72;6242223;23;19908;-84
2022/07/05 04:49:18;;;;;;;;;;;;;;;16.37;67.58;100397.91;6242793;23;19918;-84
2022/07/05 04:51:44;;;;;;;;;;;;;;;16.54;66.05;100392.81;6242197;23;19907;-84
2022/07/05 04:54:09;;;;;;;;;;;;;;;16.52;66.29;100395.03;6241433;23;19934;-74
2022/07/05 04:56:34;;;;;;;;;;;;;;;16.17;67.82;100403.28;6240061;23;19907;-74
2022/07/05 04:58:59;;;;;;;;;;;;;;;16.13;68.73;100404.97;6240505;23;19919;-76
2022/07/05 05:01:24;;;;;;;;;;;;;;;16.26;68.39;100408.19;6239632;23;19908;-76
2022/07/05 05:03:49;;;;;;;;;;;;;;;16.42;67.15;100412.44;6240794;23;20311;-76
2022/07/05 05:06:15;;;;;;;;;;;;;;;16.43;67.45;100416.81;6239702;23;19908;-76
2022/07/05 05:08:41;;;;;;;;;;;;;;;16.52;67.50;100422.53;6241265;23;19911;-84
2022/07/05 05:11:06;;;;;;;;;;;;;;;16.77;66.91;100422.59;6241249;23;19931;-84
2022/07/05 05:13:31;;;;;;;;;;;;;;;16.61;67.47;100427.44;6240624;23;19907;-76
2022/07/05 05:15:56;;;;;;;;;;;;;;;16.61;67.95;100425.50;6239119;23;20319;-76
2022/07/05 05:18:26;;;;;;;;;;;;;;;16.79;67.46;100437.72;6240520;23;19986;-79
2022/07/05 05:20:51;;;;;;;;;;;;;;;17.00;67.02;100439.44;6240182;23;20212;-79
2022/07/05 05:23:17;;;;;;;;;;;;;;;16.48;68.56;100434.41;6241301;23;19954;-84
2022/07/05 05:25:42;;;;;;;;;;;;;;;16.66;67.92;100433.69;6241303;23;20167;-84
2022/07/05 05:28:07;;;;;;;;;;;;;;;16.69;66.89;100437.81;6241576;23;19913;-84
2022/07/05 05:30:32;;;;;;;;;;;;;;;16.95;66.33;100440.31;6241460;23;19911;-84
2022/07/05 05:32:57;;;;;;;;;;;;;;;17.02;65.81;100442.72;6242175;23;19934;-84
2022/07/05 05:35:23;;;;;;;;;;;;;;;16.92;66.37;100447.22;6240828;23;20319;-84
2022/07/05 05:37:50;;;;;;;;;;;;;;;17.27;65.10;100446.31;6241431;23;19911;-83
2022/07/05 05:40:15;;;;;;;;;;;;;;;17.45;64.37;100452.97;6241357;23;20348;-83
2022/07/05 05:42:41;;;;;;;;;;;;;;;17.32;65.12;100446.25;6241829;23;19907;-84
2022/07/05 05:45:06;;;;;;;;;;;;;;;17.44;64.66;100439.50;6239760;23;20248;-79
2022/07/05 05:47:31;;;;;;;;;;;;;;;17.48;64.77;100440.56;6240020;23;19911;-79
2022/07/05 05:49:57;;;;;;;;;;;;;;;16.95;66.67;100445.81;6240074;23;19908;-76
2022/07/05 05:52:22;;;;;;;;;;;;;;;16.74;67.81;100451.50;6239552;23;19918;-76
2022/07/05 05:54:47;;;;;;;;;;;;;;;16.66;67.85;100449.38;6240637;23;19908;-76
2022/07/05 05:57:12;;;;;;;;;;;;;;;16.89;67.07;100447.81;6240038;23;19916;-76
2022/07/05 05:59:37;;;;;;;;;;;;;;;17.31;65.69;100452.88;6240122;23;19911;-74
2022/07/05 06:02:03;;;;;;;;;;;;;;;17.41;65.15;100456.66;6239935;23;19915;-74
2022/07/05 06:04:28;;;;;;;;;;;;;;;17.57;64.85;100444.31;6240084;23;19915;-79
2022/07/05 06:06:53;;;;;;;;;;;;;;;17.73;64.65;100450.44;6239128;23;19915;-79
2022/07/05 06:09:19;;;;;;;;;;;;;;;17.72;64.22;100450.72;6241080;23;20164;-84
2022/07/05 06:11:44;;;;;;;;;;;;;;;17.60;64.57;100454.75;6241667;23;19998;-84
2022/07/05 06:14:11;;;;;;;;;;;;;;;17.87;63.27;100454.38;6242330;23;19990;-84
2022/07/05 06:16:36;;;;;;;;;;;;;;;17.83;62.74;100452.22;6241401;23;19915;-84
2022/07/05 06:19:02;;;;;;;;;;;;;;;17.93;62.64;100456.78;6240932;23;20277;-80
2022/07/05 06:21:27;;;;;;;;;;;;;;;18.01;62.17;100462.72;6239950;23;19907;-79
2022/07/05 06:23:52;;;;;;;;;;;;;;;17.81;62.19;100462.75;6240950;23;19911;-74
2022/07/05 06:26:17;;;;;;;;;;;;;;;17.81;61.89;100465.50;6241717;23;19915;-74
2022/07/05 06:28:42;;;;;;;;;;;;;;;18.01;61.43;100469.06;6242367;23;19915;-75
2022/07/05 06:31:08;;;;;;;;;;;;;;;18.22;60.86;100468.81;6241894;23;19918;-76
2022/07/05 06:33:33;;;;;;;;;;;;;;;18.04;60.22;100462.16;6242383;23;19915;-76
2022/07/05 06:35:58;;;;;;;;;;;;;;;18.14;60.11;100467.53;6241700;23;19912;-76
2022/07/05 06:38:23;;;;;;;;;;;;;;;18.44;59.51;100464.59;6241573;23;19912;-79
2022/07/05 06:40:48;;;;;;;;;;;;;;;18.28;59.30;100467.63;6241763;23;20220;-80
2022/07/05 06:43:14;;;;;;;;;;;;;;;18.10;59.53;100472.00;6241853;23;19912;-79
2022/07/05 06:45:39;;;;;;;;;;;;;;;18.33;59.05;100474.16;6242278;23;19918;-79
2022/07/05 06:48:09;;;;;;;;;;;;;;;18.58;58.34;100464.63;6242152;23;19907;-79
2022/07/05 06:50:36;;;;;;;;;;;;;;;18.63;57.92;100469.25;6241738;23;19907;-79
2022/07/05 06:53:01;;;;;;;;;;;;;;;18.28;60.53;100475.88;6242000;23;19918;-76
2022/07/05 06:55:27;;;;;;;;;;;;;;;18.34;59.79;100478.56;6241448;23;20240;-76
2022/07/05 06:57:57;;;;;;;;;;;;;;;18.30;58.58;100481.94;6242028;23;19907;-79
2022/07/05 07:00:22;;;;;;;;;;;;;;;18.37;58.28;100483.47;6241714;23;19912;-79
2022/07/05 07:02:47;;;;;;;;;;;;;;;18.36;58.73;100479.09;6241062;23;19912;-76
2022/07/05 07:05:12;;;;;;;;;;;;;;;18.30;58.60;100481.94;6240638;23;20166;-76
2022/07/05 07:10:21;;;;;;;;;;;;;;;18.57;55.95;100474.03;6241607;23;20291;-76
2022/07/05 07:12:46;;;;;;;;;;;;;;;18.69;55.51;100476.34;6241602;23;19912;-85
2022/07/05 07:15:11;;;;;;;;;;;;;;;18.67;56.20;100473.06;6243615;23;19990;-86
2022/07/05 07:17:36;;;;;;;;;;;;;;;18.91;55.89;100483.13;6243449;23;20316;-86
2022/07/05 07:20:02;;;;;;;;;;;;;;;18.98;55.12;100480.78;6243134;23;19911;-86
2022/07/05 07:22:28;;;;;;;;;;;;;;;19.02;54.21;100473.53;6243470;23;19930;-86
2022/07/05 07:24:53;;;;;;;;;;;;;;;18.98;53.63;100478.03;6241630;23;19915;-75
2022/07/05 07:27:18;;;;;;;;;;;;;;;18.82;53.13;100479.41;6241898;23;19965;-76
2022/07/05 07:29:43;;;;;;;;;;;;;;;19.08;53.77;100473.44;6241714;23;19982;-79
2022/07/05 07:32:09;;;;;;;;;;;;;;;19.29;53.58;100471.13;6241615;23;20614;-79
2022/07/05 07:34:34;;;;;;;;;;;;;;;19.39;53.17;100481.16;6242723;23;19962;-79
2022/07/05 07:37:00;;;;;;;;;;;;;;;19.39;52.38;100475.63;6241642;23;19990;-78
2022/07/05 07:39:26;;;;;;;;;;;;;;;19.36;51.83;100476.25;6242850;23;19911;-86
2022/07/05 07:41:51;;;;;;;;;;;;;;;19.56;51.46;100480.53;6243871;23;19934;-86
2022/07/05 07:44:16;;;;;;;;;;;;;;;19.62;52.28;100480.41;6215296;23;19957;-74
2022/07/05 07:46:42;;;;;;;;;;;;;;;19.67;52.45;100483.09;6241115;23;19918;-74
2022/07/05 07:49:07;;;;;;;;;;;;;;;19.60;52.68;100491.78;6241932;23;20272;-84
2022/07/05 07:51:33;;;;;;;;;;;;;;;19.59;53.12;100487.38;6241956;23;19911;-84
2022/07/05 07:53:59;;;;;;;;;;;;;;;19.48;53.18;100490.38;6242168;23;19919;-74
2022/07/05 07:56:24;;;;;;;;;;;;;;;19.66;54.01;100493.31;6240292;23;20298;-74
2022/07/05 07:58:49;;;;;;;;;;;;;;;19.74;52.91;100493.72;6240861;23;19911;-76
2022/07/05 08:01:14;;;;;;;;;;;;;;;19.79;52.45;100488.09;6240564;23;19961;-76
2022/07/05 08:03:40;;;;;;;;;;;;;;;20.02;52.40;100491.72;6241274;23;19908;-86
2022/07/05 08:06:07;;;;;;;;;;;;;;;20.02;52.32;100490.88;6242192;23;19931;-86
2022/07/05 08:08:32;;;;;;;;;;;;;;;19.94;52.71;100490.50;6242439;23;19918;-79
2022/07/05 08:10:59;;;;;;;;;;;;;;;19.93;52.25;100491.63;6240645;23;19912;-79
2022/07/05 08:13:24;;;;;;;;;;;;;;;19.95;51.95;100485.81;6240742;23;20216;-78
2022/07/05 08:15:49;;;;;;;;;;;;;;;20.29;51.89;100491.97;6240075;23;19919;-78
2022/07/05 08:23:42;;;;;;;;;;;;;;;20.75;50.47;100500.25;6240474;23;20363;-74
2022/07/05 08:26:07;;;;;;;;;;;;;;;20.60;49.09;100491.22;6240170;23;19911;-74
2022/07/05 08:28:32;;;;;;;;;;;;;;;20.71;48.33;100499.25;6240506;23;20499;-87
2022/07/05 08:30:57;;;;;;;;;;;;;;;21.04;49.07;100499.00;6242380;23;19918;-87
2022/07/05 08:33:24;;;;;;;;;;;;;;;20.93;47.79;100497.63;6240880;23;20351;-77
2022/07/05 08:35:49;;;;;;;;;;;;;;;20.71;47.09;100496.50;6239930;23;19994;-77
2022/07/05 08:38:14;;;;;;;;;;;;;;;20.93;48.24;100495.63;6241105;23;19954;-86
2022/07/05 08:40:43;;;;;;;;;;;;;;;21.23;47.58;100492.41;6241649;23;19999;-86
2022/07/05 08:43:09;;;;;;;;;;;;;;;21.27;47.74;100493.41;6241494;23;19950;-75
2022/07/05 08:45:35;;;;;;;;;;;;;;;21.36;47.80;100489.84;6239564;23;19954;-74
2022/07/05 08:48:00;;;;;;;;;;;;;;;21.21;47.20;100481.59;6239512;23;19907;-77
2022/07/05 08:50:26;;;;;;;;;;;;;;;20.93;47.32;100481.78;6239401;23;20302;-77
2022/07/05 08:52:52;;;;;;;;;;;;;;;20.60;47.96;100496.78;6240024;23;19946;-86
2022/07/05 08:55:17;;;;;;;;;;;;;;;21.09;46.32;100487.75;6241434;23;19912;-86
2022/07/05 08:57:42;;;;;;;;;;;;;;;21.34;46.66;100487.38;6241483;23;20346;-81
2022/07/05 09:00:08;;;;;;;;;;;;;;;21.69;45.08;100481.09;6239505;23;19911;-80
2022/07/05 09:02:33;;;;;;;;;;;;;;;22.02;44.31;100489.03;6239867;23;19938;-79
2022/07/05 09:04:59;;;;;;;;;;;;;;;22.23;43.57;100487.56;6239475;23;19938;-78
2022/07/05 09:07:26;;;;;;;;;;;;;;;22.46;43.86;100479.84;6238948;23;19912;-78
2022/07/05 09:09:52;;;;;;;;;;;;;;;22.28;45.36;100485.44;6239752;23;19908;-78
2022/07/05 09:12:17;;;;;;;;;;;;;;;22.50;44.99;100480.00;6239305;23;20283;-78
2022/07/05 09:14:42;;;;;;;;;;;;;;;22.75;43.45;100488.66;6239458;23;19912;-76
2022/07/05 09:17:07;;;;;;;;;;;;;;;22.45;42.05;100496.84;6239451;23;19918;-76
2022/07/05 09:19:42;;;;;;;;;;;;;;;22.18;42.11;100491.31;5085121;27;19989;-77
2022/07/05 09:22:08;;;;;;;;;;;;;;;22.58;42.60;100487.50;5083774;28;19921;-77
2022/07/05 09:24:42;;;;;;;;;;;;;;;22.64;42.83;100496.47;5084954;28;20033;-74
2022/07/05 09:27:07;;;;;;;;;;;;;;;22.25;43.65;100499.94;5065475;28;19921;-74
2022/07/05 09:29:32;;;;;;;;;;;;;;;22.19;43.37;100497.69;5066461;28;20128;-85
2022/07/05 09:31:58;;;;;;;;;;;;;;;22.67;43.76;100497.81;5067127;28;19928;-85
2022/07/05 09:34:23;;;;;;;;;;;;;;;22.90;42.87;100492.88;5072717;28;19927;-82
2022/07/05 09:36:58;;;;;;;;;;;;;;;23.07;42.14;100486.44;5069624;28;19928;-82
2022/07/05 09:39:29;;;;;;;;;;;;;;;23.13;41.89;100500.13;5066252;28;19992;-82
2022/07/05 09:42:09;;;;;;;;;;;;;;;22.96;42.69;100493.50;5065818;28;19917;-82
2022/07/05 09:44:45;;;;;;;;;;;;;;;23.17;41.98;100496.38;5064790;28;19917;-72
2022/07/05 09:47:12;;;;;;;;;;;;;;;23.13;40.20;100489.84;5080647;28;20280;-72
2022/07/05 09:49:37;;;;;;;;;;;;;;;23.02;40.66;100489.41;5070415;28;19917;-86
2022/07/05 09:52:03;;;;;;;;;;;;;;;23.33;40.52;100490.22;5098549;28;20004;-86
2022/07/05 09:54:28;;;;;;;;;;;;;;;23.54;39.98;100482.00;5064873;28;20658;-72
2022/07/05 09:56:53;;;;;;;;;;;;;;;23.91;39.35;100483.38;5080858;28;19977;-73
2022/07/05 09:59:20;;;;;;;;;;;;;;;23.64;39.90;100491.91;5084282;28;19920;-73
2022/07/05 10:01:45;;;;;;;;;;;;;;;23.88;39.08;100484.88;5084438;27;19917;-74
2022/07/05 10:04:10;;;;;;;;;;;;;;;24.00;38.25;100477.75;5085596;28;19916;-85
2022/07/05 10:06:36;;;;;;;;;;;;;;;24.25;38.42;100483.47;5085184;28;19920;-85
2022/07/05 10:09:01;;;;;;;;;;;;;;;23.69;40.01;100487.31;5085046;28;19947;-75
2022/07/05 10:11:29;;;;;;;;;;;;;;;23.59;39.51;100482.94;5075844;28;19927;-75
2022/07/05 10:13:55;;;;;;;;;;;;;;;23.65;39.40;100488.00;5069803;28;20280;-85
2022/07/05 10:16:21;;;;;;;;;;;;;;;23.20;39.33;100500.47;5067895;28;19932;-85
2022/07/05 10:18:48;;;;;;;;;;;;;;;23.26;39.76;100501.91;5078953;28;20389;-86
2022/07/05 10:21:14;;;;;;;;;;;;;;;23.12;40.08;100499.34;5085477;28;19965;-85
2022/07/05 10:23:44;;;;;;;;;;;;;;;23.69;37.50;100492.88;5085088;28;19927;-73
2022/07/05 10:26:10;;;;;;;;;;;;;;;23.84;36.26;100481.13;5083586;28;19931;-72
2022/07/05 10:28:37;;;;;;;;;;;;;;;24.24;36.48;100479.06;5065593;28;20156;-74
2022/07/05 10:31:02;;;;;;;;;;;;;;;24.42;34.82;100479.72;5070544;28;19916;-74
2022/07/05 10:33:28;;;;;;;;;;;;;;;24.56;34.02;100473.84;5071369;28;19924;-82
2022/07/05 10:35:54;;;;;;;;;;;;;;;24.91;34.15;100478.22;5081316;28;19931;-82
2022/07/05 10:38:19;;;;;;;;;;;;;;;24.60;34.80;100476.75;5071747;28;20371;-78
2022/07/05 10:40:47;;;;;;;;;;;;;;;25.24;34.34;100478.50;5070389;28;19921;-79
2022/07/05 10:43:13;;;;;;;;;;;;;;;25.21;32.96;100484.78;5070162;28;19970;-78
2022/07/05 10:45:39;;;;;;;;;;;;;;;25.13;33.16;100483.72;5077153;28;20200;-77
2022/07/05 10:48:13;;;;;;;;;;;;;;;25.24;32.09;100479.31;5090979;28;20376;-86
2022/07/05 10:50:42;;;;;;;;;;;;;;;25.46;30.69;100473.63;5091821;28;19931;-87
2022/07/05 10:53:07;;;;;;;;;;;;;;;25.70;31.34;100467.22;5092804;28;20431;-85
2022/07/05 10:55:46;;;;;;;;;;;;;;;25.57;30.43;100462.81;5086108;28;19924;-85
2022/07/05 10:58:17;;;;;;;;;;;;;;;25.86;31.45;100466.47;5071313;28;20035;-73
2022/07/05 11:00:43;;;;;;;;;;;;;;;25.94;31.38;100457.16;5069793;28;19916;-72
2022/07/05 11:03:27;;;;;;;;;;;;;;;25.13;33.00;100467.00;5070204;28;20391;-82
2022/07/05 11:05:53;;;;;;;;;;;;;;;24.70;33.30;100469.91;5080467;28;19977;-82
2022/07/05 11:08:18;;;;;;;;;;;;;;;24.42;33.82;100474.16;5070840;28;19920;-73
2022/07/05 11:11:02;;;;;;;;;;;;;;;25.04;33.50;100479.06;5069143;28;19920;-72
2022/07/05 11:13:37;;;;;;;;;;;;;;;24.90;33.19;100475.75;5069580;28;20363;-75
2022/07/05 11:16:22;;;;;;;;;;;;;;;25.71;32.35;100462.47;5076364;28;20212;-74
2022/07/05 11:18:48;;;;;;;;;;;;;;;25.83;31.03;100464.41;5089317;28;19920;-75
2022/07/05 11:21:21;;;;;;;;;;;;;;;25.23;32.12;100471.28;5088941;28;19971;-74
2022/07/05 11:23:46;;;;;;;;;;;;;;;24.87;32.07;100471.72;5090591;28;20156;-85
2022/07/05 11:26:13;;;;;;;;;;;;;;;24.57;32.59;100469.09;5090765;28;20383;-86
2022/07/05 11:28:42;;;;;;;;;;;;;;;25.11;31.80;100460.94;5090741;28;19920;-82
2022/07/05 11:31:08;;;;;;;;;;;;;;;25.52;31.59;100456.28;5091079;28;19916;-82
2022/07/05 11:33:38;;;;;;;;;;;;;;;25.46;31.83;100460.50;5090094;28;20330;-76
2022/07/05 11:36:04;;;;;;;;;;;;;;;25.28;32.07;100463.50;5078863;28;20015;-75
2022/07/05 11:38:30;;;;;;;;;;;;;;;25.59;32.62;100463.28;5069302;28;19920;-78
2022/07/05 11:41:09;;;;;;;;;;;;;;;25.37;32.89;100465.34;5068372;28;20007;-77
2022/07/05 11:43:35;;;;;;;;;;;;;;;25.09;32.36;100466.88;5069551;28;19920;-75
2022/07/05 11:46:00;;;;;;;;;;;;;;;24.74;32.93;100462.50;5075199;28;19942;-75
2022/07/05 11:48:26;;;;;;;;;;;;;;;24.78;32.63;100455.06;5089445;28;19916;-86
2022/07/05 11:50:51;;;;;;;;;;;;;;;25.65;31.84;100454.28;5090523;28;19920;-85
2022/07/05 11:53:27;;;;;;;;;;;;;;;25.94;30.50;100443.19;5091126;28;20093;-86
2022/07/05 11:55:57;;;;;;;;;;;;;;;26.14;30.89;100446.13;5081985;28;19928;-86
2022/07/05 11:58:29;;;;;;;;;;;;;;;26.20;30.10;100446.69;5070264;28;20293;-75
2022/07/05 12:00:55;;;;;;;;;;;;;;;26.65;29.75;100430.78;5069459;28;20007;-74
2022/07/05 12:03:21;;;;;;;;;;;;;;;26.50;30.42;100434.38;5068931;28;20299;-77
2022/07/05 12:05:46;;;;;;;;;;;;;;;25.82;31.50;100435.66;5077447;28;19927;-77
2022/07/05 12:08:18;;;;;;;;;;;;;;;25.24;32.86;100436.66;5068596;28;19921;-75
2022/07/05 12:13:31;;;;;;;;;;;;;;;26.51;31.64;100441.56;5068899;28;19931;-78
2022/07/05 12:16:00;;;;;;;;;;;;;;;26.62;31.41;100439.88;5074699;28;19920;-78
2022/07/05 12:18:25;;;;;;;;;;;;;;;27.19;31.21;100444.50;5070401;28;20374;-83
2022/07/05 12:20:50;;;;;;;;;;;;;;;27.29;30.58;100437.53;5090160;28;20446;-83
2022/07/05 12:23:15;;;;;;;;;;;;;;;27.60;30.51;100437.84;5089640;28;19916;-78
2022/07/05 12:25:41;;;;;;;;;;;;;;;27.48;30.12;100444.38;5062746;28;19924;-77
2022/07/05 12:28:09;;;;;;;;;;;;;;;27.16;30.17;100436.84;5068662;28;19952;-77
2022/07/05 12:30:34;;;;;;;;;;;;;;;27.96;29.84;100440.63;5068632;28;20330;-78
2022/07/05 12:33:04;;;;;;;;;;;;;;;27.60;28.76;100438.63;5068141;28;19931;-73
2022/07/05 12:35:29;;;;;;;;;;;;;;;27.59;29.07;100447.41;5077021;28;19935;-72
2022/07/05 12:37:55;;;;;;;;;;;;;;;27.07;29.93;100447.38;5067789;28;19916;-78
2022/07/05 12:40:22;;;;;;;;;;;;;;;27.03;30.06;100434.09;5067815;28;19916;-78
2022/07/05 12:42:48;;;;;;;;;;;;;;;26.35;31.13;100439.53;5068343;28;19960;-73